Bustins Island, Maine
Current Conditions -  °F | °C
As of 6:51 AM on Sunday 23 Nov 2014 (Local Time) from KPWM Reporting Station
Scattered Clouds Scattered Clouds  
Wind Chill: 33°   Ceiling: Unl
Heat Index: 39°   Visibility: 10mi
Dew Point: 28°   Wind: 8mph
Humidity: 65%   Direction: 220°SW
Pressure: 30.03"   Gusts: NA
Location:  43.8°N, 70.07°W
Report Text: KPWM 231151Z 22007KT 10SM SCT110 04/M02 A3003 RMK AO2 SLP168 T00391022 10056 20039 53013
Loading
Personal Weather Stations






























Interactive Weather Map New forecast layout! Learn more

10-Day Weather Forecast

Advertisements
Track Severe Weather on mobile